Time;durP1;ratioP1;P1;durP2;ratioP2;P2;SDS_P1;SDS_P2;PMS_P1;PMS_P2;Temp;Humidity;BMP_temperature;BMP_pressure;BME280_temperature;BME280_humidity;BME280_pressure;Samples;Min_cycle;Max_cycle;Signal;HPM_P1;HPM_P2
2024/01/16 00:01:10;;;;;;;0.20;0.20;;;-0.90;99.90;;;;;;5090001;28;20214;-63
2024/01/16 00:03:37;;;;;;;0.70;0.70;;;-1.10;99.90;;;;;;5088753;28;20176;-63
2024/01/16 00:06:04;;;;;;;0.00;0.00;;;-1.10;99.90;;;;;;5088561;28;20187;-64
2024/01/16 00:08:29;;;;;;;0.00;0.00;;;-1.10;99.90;;;;;;5089799;28;20191;-63
2024/01/16 00:10:55;;;;;;;0.00;0.00;;;-1.10;99.90;;;;;;5090025;28;20590;-66
2024/01/16 00:13:20;;;;;;;0.00;0.00;;;-1.00;99.90;;;;;;5090008;28;20180;-64
2024/01/16 00:15:46;;;;;;;0.00;0.00;;;-1.10;99.90;;;;;;5089555;28;20212;-63
2024/01/16 00:18:11;;;;;;;0.00;0.00;;;-1.10;99.90;;;;;;5089883;28;20262;-64
2024/01/16 00:20:37;;;;;;;0.00;0.00;;;-1.10;99.90;;;;;;5089951;28;20277;-63
2024/01/16 00:23:02;;;;;;;0.00;0.00;;;-1.10;99.90;;;;;;5092633;28;20237;-63
2024/01/16 00:25:28;;;;;;;0.00;0.00;;;-1.20;99.90;;;;;;5093353;28;20188;-64
2024/01/16 00:27:54;;;;;;;0.10;0.10;;;-1.20;99.90;;;;;;5093604;28;20208;-64
2024/01/16 00:30:20;;;;;;;0.00;0.00;;;-1.20;99.90;;;;;;5093512;28;20188;-64
2024/01/16 00:32:46;;;;;;;0.00;0.00;;;-1.30;99.90;;;;;;5093227;28;20237;-62
2024/01/16 00:35:12;;;;;;;0.00;0.00;;;-1.30;99.90;;;;;;5093726;28;20195;-63
2024/01/16 00:37:37;;;;;;;0.00;0.00;;;-1.40;99.90;;;;;;5093398;28;20640;-63
2024/01/16 00:40:04;;;;;;;0.67;0.67;;;-1.40;99.90;;;;;;5093127;28;20235;-64
2024/01/16 00:42:31;;;;;;;0.00;0.00;;;-1.40;99.90;;;;;;5093650;28;20218;-63
2024/01/16 00:44:57;;;;;;;0.00;0.00;;;-1.40;99.90;;;;;;5092959;28;20503;-64
2024/01/16 00:47:23;;;;;;;0.03;0.03;;;-1.50;99.90;;;;;;5093370;28;20517;-63
2024/01/16 00:49:48;;;;;;;0.00;0.00;;;-1.50;99.90;;;;;;5092915;28;20214;-63
2024/01/16 00:52:14;;;;;;;0.10;0.10;;;-1.50;99.90;;;;;;5093563;28;20187;-63
2024/01/16 00:54:40;;;;;;;0.00;0.00;;;-1.50;99.90;;;;;;5093143;28;20188;-64
2024/01/16 00:57:06;;;;;;;0.00;0.00;;;-1.50;99.90;;;;;;5093401;28;20172;-64
2024/01/16 00:59:31;;;;;;;0.00;0.00;;;-1.50;99.90;;;;;;5093138;28;20207;-63
2024/01/16 01:01:57;;;;;;;0.00;0.00;;;-1.40;99.90;;;;;;5091286;28;20177;-63
2024/01/16 01:04:22;;;;;;;0.00;0.00;;;-1.30;99.90;;;;;;5093215;28;20238;-64
2024/01/16 01:06:47;;;;;;;0.03;0.03;;;-1.30;99.90;;;;;;5092953;28;20194;-64
2024/01/16 01:09:13;;;;;;;0.00;0.00;;;-1.20;99.90;;;;;;5093344;28;20185;-64
2024/01/16 01:11:39;;;;;;;0.00;0.00;;;-1.20;99.90;;;;;;5092780;28;20199;-64
2024/01/16 01:14:04;;;;;;;0.00;0.00;;;-1.20;99.90;;;;;;5093248;28;20176;-64
2024/01/16 01:16:31;;;;;;;0.00;0.00;;;-1.10;99.90;;;;;;5092843;28;20180;-64
2024/01/16 01:18:56;;;;;;;0.00;0.00;;;-1.10;99.90;;;;;;5093032;28;20180;-64
2024/01/16 01:21:22;;;;;;;0.00;0.00;;;-1.00;99.90;;;;;;5093075;28;20246;-64
2024/01/16 01:23:47;;;;;;;0.00;0.00;;;-1.00;99.90;;;;;;5088312;28;20241;-64
2024/01/16 01:26:17;;;;;;;0.00;0.00;;;-1.00;99.90;;;;;;5092951;28;20186;-64
2024/01/16 01:28:43;;;;;;;0.00;0.00;;;-1.00;99.90;;;;;;5092911;28;20184;-64
2024/01/16 01:31:10;;;;;;;0.00;0.00;;;-0.90;99.90;;;;;;5092682;28;20646;-64
2024/01/16 01:33:35;;;;;;;0.00;0.00;;;-0.90;99.90;;;;;;5091645;28;20180;-64
2024/01/16 01:36:01;;;;;;;0.00;0.00;;;-0.90;99.90;;;;;;5091995;28;20183;-64
2024/01/16 01:38:26;;;;;;;0.00;0.00;;;-0.90;99.90;;;;;;5091836;28;20180;-64
2024/01/16 01:40:52;;;;;;;0.10;0.10;;;-0.90;99.90;;;;;;5092390;28;20317;-64
2024/01/16 01:43:25;;;;;;;0.00;0.00;;;-0.90;99.90;;;;;;5092581;28;20180;-65
2024/01/16 01:46:14;;;;;;;0.00;0.00;;;-0.90;99.90;;;;;;5090792;28;20604;-64
2024/01/16 01:48:43;;;;;;;0.00;0.00;;;-0.90;99.90;;;;;;5092148;28;20678;-64
2024/01/16 01:51:10;;;;;;;0.00;0.00;;;-0.90;99.90;;;;;;5090741;28;20203;-64
2024/01/16 01:53:37;;;;;;;0.00;0.00;;;-0.90;99.90;;;;;;5092420;28;20191;-64
2024/01/16 01:56:07;;;;;;;0.00;0.00;;;-0.90;99.90;;;;;;5089735;28;20195;-64
2024/01/16 01:58:38;;;;;;;0.10;0.10;;;-0.90;99.90;;;;;;5092346;28;20267;-64
2024/01/16 02:01:06;;;;;;;0.00;0.00;;;-0.90;99.90;;;;;;5092222;28;20220;-63
2024/01/16 02:03:43;;;;;;;0.27;0.27;;;-0.90;99.90;;;;;;5092290;28;20203;-63
2024/01/16 02:06:10;;;;;;;0.00;0.00;;;-0.90;99.90;;;;;;5075931;28;20313;-63
2024/01/16 02:08:35;;;;;;;0.00;0.00;;;-1.00;99.90;;;;;;5092126;28;20176;-63
2024/01/16 02:11:01;;;;;;;0.00;0.00;;;-1.00;99.90;;;;;;5091814;28;20183;-63
2024/01/16 02:13:28;;;;;;;0.00;0.00;;;-1.00;99.90;;;;;;5091811;28;20191;-63
2024/01/16 02:15:53;;;;;;;0.10;0.10;;;-1.10;99.90;;;;;;5091611;28;20188;-63
2024/01/16 02:18:19;;;;;;;0.00;0.00;;;-1.10;99.90;;;;;;5091910;28;20172;-63
2024/01/16 02:20:46;;;;;;;0.00;0.00;;;-1.10;99.90;;;;;;5091439;28;20223;-62
2024/01/16 02:23:14;;;;;;;0.00;0.00;;;-1.20;99.90;;;;;;5090648;28;20183;-63
2024/01/16 02:25:41;;;;;;;0.00;0.00;;;-1.20;99.90;;;;;;5091294;28;20553;-63
2024/01/16 02:28:07;;;;;;;0.07;0.07;;;-1.20;99.90;;;;;;5091418;28;20535;-63
2024/01/16 02:30:33;;;;;;;0.00;0.00;;;-1.20;99.90;;;;;;5091603;28;20183;-64
2024/01/16 02:32:59;;;;;;;0.00;0.00;;;-1.20;99.90;;;;;;5091700;28;20180;-63
2024/01/16 02:35:24;;;;;;;0.00;0.00;;;-1.30;99.90;;;;;;5091572;28;20600;-64
2024/01/16 02:37:50;;;;;;;0.00;0.00;;;-1.30;99.90;;;;;;5090840;28;20180;-64
2024/01/16 02:40:15;;;;;;;0.00;0.00;;;-1.30;99.90;;;;;;5074862;28;20232;-64
2024/01/16 02:42:41;;;;;;;0.03;0.03;;;-1.30;99.90;;;;;;5091693;28;20176;-64
2024/01/16 02:45:07;;;;;;;0.00;0.00;;;-1.40;99.90;;;;;;5090754;28;20227;-63
2024/01/16 02:47:33;;;;;;;0.00;0.00;;;-1.40;99.90;;;;;;5091028;28;20172;-63
2024/01/16 02:49:59;;;;;;;0.07;0.07;;;-1.40;99.90;;;;;;5091064;28;20237;-63
2024/01/16 02:52:25;;;;;;;0.00;0.00;;;-1.50;99.90;;;;;;5091418;28;20180;-64
2024/01/16 02:54:51;;;;;;;0.03;0.03;;;-1.50;99.90;;;;;;5091422;28;20270;-64
2024/01/16 02:57:16;;;;;;;0.00;0.00;;;-1.50;99.90;;;;;;5091110;28;20195;-64
2024/01/16 02:59:45;;;;;;;0.00;0.00;;;-1.50;99.90;;;;;;5091088;28;20219;-63
2024/01/16 03:02:11;;;;;;;0.00;0.00;;;-1.50;99.90;;;;;;5091085;28;20229;-64
2024/01/16 03:04:37;;;;;;;0.00;0.00;;;-1.50;99.90;;;;;;5091201;28;20172;-64
2024/01/16 03:07:02;;;;;;;0.00;0.00;;;-1.50;99.90;;;;;;5089848;28;20184;-63
2024/01/16 03:09:28;;;;;;;0.00;0.00;;;-1.50;99.90;;;;;;5089795;28;20168;-64
2024/01/16 03:11:54;;;;;;;0.00;0.00;;;-1.50;99.90;;;;;;5090618;28;20215;-64
2024/01/16 03:14:19;;;;;;;0.00;0.00;;;-1.40;99.90;;;;;;5090965;28;20164;-64
2024/01/16 03:16:45;;;;;;;0.00;0.00;;;-1.40;99.90;;;;;;5090869;28;20187;-63
2024/01/16 03:19:12;;;;;;;0.00;0.00;;;-1.40;99.90;;;;;;5089444;28;20756;-64
2024/01/16 03:21:38;;;;;;;0.00;0.00;;;-1.40;99.90;;;;;;5089645;28;20336;-63
2024/01/16 03:24:05;;;;;;;0.00;0.00;;;-1.30;99.90;;;;;;5090534;28;20184;-63
2024/01/16 03:26:31;;;;;;;0.00;0.00;;;-1.30;99.90;;;;;;5090608;28;20195;-62
2024/01/16 03:28:56;;;;;;;0.00;0.00;;;-1.30;99.90;;;;;;5090881;28;20179;-62
2024/01/16 03:31:22;;;;;;;0.00;0.00;;;-1.30;99.90;;;;;;5090431;28;20192;-62
2024/01/16 03:33:47;;;;;;;0.00;0.00;;;-1.30;99.90;;;;;;5090406;28;20164;-63
2024/01/16 03:36:13;;;;;;;0.00;0.00;;;-1.30;99.90;;;;;;5090491;28;20259;-63
2024/01/16 03:38:39;;;;;;;0.07;0.07;;;-1.20;99.90;;;;;;5090241;28;20215;-63
2024/01/16 03:41:06;;;;;;;0.00;0.00;;;-1.20;99.90;;;;;;5090364;28;20303;-63
2024/01/16 03:43:36;;;;;;;0.13;0.13;;;-1.20;99.90;;;;;;5088510;28;20640;-63
2024/01/16 03:46:02;;;;;;;0.00;0.00;;;-1.20;99.90;;;;;;5087454;28;20254;-64
2024/01/16 03:48:28;;;;;;;0.00;0.00;;;-1.20;99.90;;;;;;5090518;28;20172;-63
2024/01/16 03:50:56;;;;;;;0.00;0.00;;;-1.20;99.90;;;;;;5090668;28;20184;-63
2024/01/16 03:53:22;;;;;;;0.00;0.00;;;-1.20;99.90;;;;;;5090533;28;20619;-64
2024/01/16 03:55:49;;;;;;;0.00;0.00;;;-1.20;99.90;;;;;;5091091;28;20176;-63
2024/01/16 03:58:15;;;;;;;0.00;0.00;;;-1.20;99.90;;;;;;5094113;28;20650;-64
2024/01/16 04:00:41;;;;;;;0.00;0.00;;;-1.20;99.90;;;;;;5094491;28;20248;-64
2024/01/16 04:03:07;;;;;;;0.00;0.00;;;-1.10;99.90;;;;;;5094707;28;20215;-63
2024/01/16 04:05:33;;;;;;;0.00;0.00;;;-1.20;99.90;;;;;;5094512;28;20180;-64
2024/01/16 04:07:58;;;;;;;0.00;0.00;;;-1.10;99.90;;;;;;5092943;28;20178;-64
2024/01/16 04:10:24;;;;;;;0.00;0.00;;;-1.20;99.90;;;;;;5092449;28;20184;-64
2024/01/16 04:12:49;;;;;;;0.10;0.10;;;-1.20;99.90;;;;;;5091315;28;20544;-64
2024/01/16 04:15:15;;;;;;;0.00;0.00;;;-1.20;99.90;;;;;;5092608;28;20176;-64
2024/01/16 04:17:40;;;;;;;0.00;0.00;;;-1.20;99.90;;;;;;5092915;28;20272;-63
2024/01/16 04:20:07;;;;;;;0.00;0.00;;;-1.30;99.90;;;;;;5094650;28;20314;-63
2024/01/16 04:22:32;;;;;;;0.00;0.00;;;-1.30;99.90;;;;;;5094646;28;20199;-64
2024/01/16 04:24:58;;;;;;;0.00;0.00;;;-1.30;99.90;;;;;;5094981;28;20627;-63
2024/01/16 04:27:25;;;;;;;0.00;0.00;;;-1.30;99.90;;;;;;5093277;28;20168;-61
2024/01/16 04:29:51;;;;;;;0.00;0.00;;;-1.40;99.90;;;;;;5094719;28;20176;-64
2024/01/16 04:32:16;;;;;;;0.00;0.00;;;-1.40;99.90;;;;;;5094414;28;20188;-64
2024/01/16 04:34:42;;;;;;;0.00;0.00;;;-1.40;99.90;;;;;;5094810;28;20194;-64
2024/01/16 04:37:08;;;;;;;0.00;0.00;;;-1.40;99.90;;;;;;5094505;28;20183;-64
2024/01/16 04:39:34;;;;;;;0.00;0.00;;;-1.40;99.90;;;;;;5094220;28;20259;-67
2024/01/16 04:41:59;;;;;;;0.00;0.00;;;-1.50;99.90;;;;;;5093741;28;20238;-67
2024/01/16 04:44:25;;;;;;;0.00;0.00;;;-1.50;99.90;;;;;;5093931;28;20184;-63
2024/01/16 04:46:50;;;;;;;0.00;0.00;;;-1.40;99.90;;;;;;5093342;28;20180;-64
2024/01/16 04:49:16;;;;;;;0.10;0.10;;;-1.50;99.90;;;;;;5094714;28;20168;-63
2024/01/16 04:51:41;;;;;;;0.00;0.00;;;-1.50;99.90;;;;;;5094458;28;20248;-62
2024/01/16 04:54:07;;;;;;;0.00;0.00;;;-1.50;99.90;;;;;;5094478;28;20620;-66
2024/01/16 04:56:33;;;;;;;0.07;0.07;;;-1.50;99.90;;;;;;5091136;28;20651;-65
2024/01/16 04:58:58;;;;;;;0.00;0.00;;;-1.60;99.90;;;;;;5092459;28;20259;-62
2024/01/16 05:01:25;;;;;;;0.00;0.00;;;-1.60;99.90;;;;;;5093983;28;20180;-63
2024/01/16 05:03:50;;;;;;;0.27;0.27;;;-1.70;99.90;;;;;;5093794;28;20187;-68
2024/01/16 05:06:16;;;;;;;0.00;0.00;;;-1.70;99.90;;;;;;5093137;28;20183;-67
2024/01/16 05:08:42;;;;;;;0.93;0.93;;;-1.70;99.90;;;;;;5091057;28;20610;-67
2024/01/16 05:11:08;;;;;;;0.00;0.00;;;-1.80;99.90;;;;;;5092203;28;20204;-67
2024/01/16 05:13:34;;;;;;;0.10;0.10;;;-1.80;99.90;;;;;;5092955;28;20195;-66
2024/01/16 05:15:59;;;;;;;0.00;0.00;;;-1.80;99.90;;;;;;5093875;28;20211;-66
2024/01/16 05:18:25;;;;;;;0.00;0.00;;;-1.80;99.90;;;;;;5093800;28;20208;-67
2024/01/16 05:20:50;;;;;;;0.00;0.00;;;-1.80;99.90;;;;;;5093336;28;20697;-66
2024/01/16 05:23:16;;;;;;;0.10;0.10;;;-1.90;99.90;;;;;;5093583;28;20221;-66
2024/01/16 05:25:41;;;;;;;0.00;0.00;;;-1.90;99.90;;;;;;5089730;28;20230;-66
2024/01/16 05:28:07;;;;;;;0.00;0.00;;;-2.00;99.90;;;;;;5093152;28;20217;-66
2024/01/16 05:30:33;;;;;;;0.10;0.10;;;-2.00;99.90;;;;;;5093305;28;20543;-66
2024/01/16 05:33:01;;;;;;;0.00;0.00;;;-2.10;99.90;;;;;;5093241;28;20531;-66
2024/01/16 05:35:28;;;;;;;0.00;0.00;;;-2.10;99.90;;;;;;5093461;28;20276;-66
2024/01/16 05:37:54;;;;;;;0.00;0.00;;;-2.10;99.90;;;;;;5093189;28;20184;-66
2024/01/16 05:40:21;;;;;;;0.00;0.00;;;-2.10;99.90;;;;;;5092746;28;20251;-67
2024/01/16 05:42:47;;;;;;;0.00;0.00;;;-2.10;99.90;;;;;;5093185;28;20164;-67
2024/01/16 05:45:13;;;;;;;0.00;0.00;;;-2.10;99.90;;;;;;5093098;28;20710;-66
2024/01/16 05:47:39;;;;;;;0.00;0.00;;;-2.20;99.90;;;;;;5093219;28;20239;-65
2024/01/16 05:50:05;;;;;;;0.20;0.20;;;-2.20;99.90;;;;;;5091932;28;20195;-66
2024/01/16 05:52:31;;;;;;;0.00;0.00;;;-2.20;99.90;;;;;;5093081;28;20168;-65
2024/01/16 05:54:58;;;;;;;0.00;0.00;;;-2.20;99.90;;;;;;5093194;28;20653;-66
2024/01/16 05:57:23;;;;;;;0.00;0.00;;;-2.20;99.90;;;;;;5093097;28;20172;-66
2024/01/16 05:59:49;;;;;;;0.00;0.00;;;-2.20;99.90;;;;;;5092611;28;20200;-65
2024/01/16 06:02:15;;;;;;;0.00;0.00;;;-2.20;99.90;;;;;;5092876;28;20658;-66
2024/01/16 06:04:40;;;;;;;0.40;0.40;;;-2.30;99.90;;;;;;5091342;28;20179;-65
2024/01/16 06:07:08;;;;;;;0.00;0.00;;;-2.30;99.90;;;;;;5092809;28;20188;-66
2024/01/16 06:09:43;;;;;;;0.00;0.00;;;-2.40;99.90;;;;;;5092768;28;20301;-65
2024/01/16 06:12:08;;;;;;;0.00;0.00;;;-2.40;99.90;;;;;;5092590;28;20175;-66
2024/01/16 06:14:34;;;;;;;0.10;0.10;;;-2.40;99.90;;;;;;5092469;28;20671;-66
2024/01/16 06:17:00;;;;;;;0.20;0.20;;;-2.40;99.90;;;;;;5092472;28;20176;-65
2024/01/16 06:19:26;;;;;;;0.00;0.00;;;-2.40;99.90;;;;;;5091672;28;20196;-66
2024/01/16 06:21:51;;;;;;;0.00;0.00;;;-2.40;99.90;;;;;;5092248;28;20191;-66
2024/01/16 06:24:17;;;;;;;0.10;0.10;;;-2.40;99.90;;;;;;5092613;28;20197;-67
2024/01/16 06:26:43;;;;;;;0.00;0.00;;;-2.40;99.90;;;;;;5092394;28;20271;-65
2024/01/16 06:29:09;;;;;;;0.00;0.00;;;-2.40;99.90;;;;;;5092344;28;20176;-66
2024/01/16 06:31:34;;;;;;;0.00;0.00;;;-2.50;99.90;;;;;;5092024;28;20168;-66
2024/01/16 06:34:00;;;;;;;0.60;0.30;;;-2.50;99.90;;;;;;5092141;28;20168;-66
2024/01/16 06:36:26;;;;;;;0.00;0.00;;;-2.50;99.90;;;;;;5092147;28;20263;-66
2024/01/16 06:38:51;;;;;;;0.00;0.00;;;-2.50;99.90;;;;;;5091957;28;20224;-67
2024/01/16 06:41:17;;;;;;;0.00;0.00;;;-2.50;99.90;;;;;;5092017;28;20232;-66
2024/01/16 06:43:42;;;;;;;0.00;0.00;;;-2.50;99.90;;;;;;5092011;28;20202;-67
2024/01/16 06:46:08;;;;;;;0.00;0.00;;;-2.60;99.90;;;;;;5092070;28;20635;-66
2024/01/16 06:48:35;;;;;;;0.00;0.00;;;-2.60;99.90;;;;;;5091874;28;20184;-66
2024/01/16 06:51:01;;;;;;;0.03;0.03;;;-2.60;99.90;;;;;;5090742;28;20180;-66
2024/01/16 06:53:26;;;;;;;0.00;0.00;;;-2.60;99.90;;;;;;5090729;28;20225;-66
2024/01/16 06:55:52;;;;;;;0.10;0.10;;;-2.60;99.90;;;;;;5091358;28;20198;-66
2024/01/16 06:58:17;;;;;;;0.00;0.00;;;-2.60;99.90;;;;;;5090068;28;20176;-66
2024/01/16 07:00:43;;;;;;;0.10;0.10;;;-2.60;99.90;;;;;;5091520;28;20248;-66
2024/01/16 07:03:08;;;;;;;0.03;0.03;;;-2.60;99.90;;;;;;5091815;28;20172;-66
2024/01/16 07:05:34;;;;;;;0.00;0.00;;;-2.50;99.90;;;;;;5091499;28;20214;-66
2024/01/16 07:08:00;;;;;;;0.00;0.00;;;-2.50;99.90;;;;;;5091682;28;20183;-67
2024/01/16 07:10:25;;;;;;;0.00;0.00;;;-2.50;99.90;;;;;;5091785;28;20208;-66
2024/01/16 07:12:51;;;;;;;0.00;0.00;;;-2.40;99.90;;;;;;5091823;28;20187;-67
2024/01/16 07:15:18;;;;;;;0.00;0.00;;;-2.40;99.90;;;;;;5090192;28;20176;-66
2024/01/16 07:17:43;;;;;;;0.00;0.00;;;-2.40;99.90;;;;;;5091541;28;20180;-67
2024/01/16 07:20:09;;;;;;;0.00;0.00;;;-2.40;99.90;;;;;;5091486;28;20281;-67
2024/01/16 07:22:37;;;;;;;0.00;0.00;;;-2.40;99.90;;;;;;5090046;28;20172;-66
2024/01/16 07:25:03;;;;;;;0.00;0.00;;;-2.40;99.90;;;;;;5091411;28;20206;-65
2024/01/16 07:27:28;;;;;;;0.00;0.00;;;-2.30;99.90;;;;;;5091469;28;20182;-66
2024/01/16 07:29:54;;;;;;;0.00;0.00;;;-2.30;99.90;;;;;;5091176;28;20211;-65
2024/01/16 07:32:19;;;;;;;0.10;0.10;;;-2.30;99.90;;;;;;5089855;28;20215;-66
2024/01/16 07:34:45;;;;;;;0.00;0.00;;;-2.20;99.90;;;;;;5091341;28;20176;-67
2024/01/16 07:37:10;;;;;;;0.00;0.00;;;-2.20;99.90;;;;;;5091450;28;20180;-66
2024/01/16 07:39:36;;;;;;;0.00;0.00;;;-2.10;99.90;;;;;;5090913;28;20278;-66
2024/01/16 07:42:03;;;;;;;0.00;0.00;;;-2.10;99.90;;;;;;5091448;28;20208;-66
2024/01/16 07:44:28;;;;;;;0.00;0.00;;;-2.00;99.90;;;;;;5091415;28;20273;-66
2024/01/16 07:46:54;;;;;;;0.17;0.17;;;-2.00;99.90;;;;;;5090986;28;20184;-66
2024/01/16 07:49:19;;;;;;;0.00;0.00;;;-1.90;99.90;;;;;;5091143;28;20244;-66
2024/01/16 07:51:45;;;;;;;0.00;0.00;;;-1.90;99.90;;;;;;5090768;28;20180;-66
2024/01/16 07:54:10;;;;;;;0.20;0.20;;;-1.90;99.90;;;;;;5091160;28;20250;-66
2024/01/16 07:56:37;;;;;;;0.00;0.00;;;-1.80;99.90;;;;;;5089544;28;20179;-66
2024/01/16 07:59:03;;;;;;;0.00;0.00;;;-1.80;99.90;;;;;;5091093;28;20192;-66
2024/01/16 08:01:29;;;;;;;0.00;0.00;;;-1.70;99.90;;;;;;5089601;28;20699;-67
2024/01/16 08:03:55;;;;;;;0.00;0.00;;;-1.70;99.90;;;;;;5090914;28;20208;-66
2024/01/16 08:06:21;;;;;;;0.00;0.00;;;-1.70;99.90;;;;;;5091119;28;20208;-66
2024/01/16 08:08:48;;;;;;;0.00;0.00;;;-1.70;99.90;;;;;;5090962;28;20202;-66
2024/01/16 08:11:13;;;;;;;0.17;0.17;;;-1.70;99.90;;;;;;5090861;28;20184;-66
2024/01/16 08:13:39;;;;;;;0.00;0.00;;;-1.70;99.90;;;;;;5090820;28;20179;-66
2024/01/16 08:16:05;;;;;;;0.00;0.00;;;-1.70;99.90;;;;;;5091043;28;20184;-66
2024/01/16 08:18:33;;;;;;;0.10;0.10;;;-1.60;99.90;;;;;;5090726;28;20180;-65
2024/01/16 08:20:59;;;;;;;0.20;0.20;;;-1.50;99.90;;;;;;5090802;28;20247;-66
2024/01/16 08:23:24;;;;;;;0.00;0.00;;;-1.50;99.90;;;;;;5089463;28;20238;-66
2024/01/16 08:25:51;;;;;;;0.00;0.00;;;-1.40;99.90;;;;;;5090479;28;20664;-66
2024/01/16 08:28:17;;;;;;;0.00;0.00;;;-1.40;99.90;;;;;;5090465;28;20540;-66
2024/01/16 08:30:42;;;;;;;0.00;0.00;;;-1.40;99.90;;;;;;5090574;28;20176;-66
2024/01/16 08:33:08;;;;;;;0.00;0.00;;;-1.40;99.90;;;;;;5090897;28;20322;-66
2024/01/16 08:35:34;;;;;;;0.10;0.10;;;-1.40;99.90;;;;;;5090687;28;20655;-66
2024/01/16 08:37:59;;;;;;;0.00;0.00;;;-1.40;99.90;;;;;;5089419;28;20263;-66
2024/01/16 08:40:25;;;;;;;0.10;0.10;;;-1.30;99.90;;;;;;5090477;28;20243;-66
2024/01/16 08:42:54;;;;;;;0.00;0.00;;;-1.30;99.90;;;;;;5091797;28;20704;-66
2024/01/16 08:45:20;;;;;;;0.00;0.00;;;-1.30;99.90;;;;;;5094487;28;20259;-66
2024/01/16 08:47:46;;;;;;;0.00;0.00;;;-1.30;99.90;;;;;;5094361;28;20172;-66
2024/01/16 08:50:12;;;;;;;0.03;0.03;;;-1.20;99.90;;;;;;5094382;28;20223;-66
2024/01/16 08:52:37;;;;;;;0.07;0.07;;;-1.20;99.90;;;;;;5094235;28;20172;-66
2024/01/16 08:55:03;;;;;;;0.10;0.10;;;-1.20;99.90;;;;;;5094292;28;20164;-66
2024/01/16 08:57:29;;;;;;;0.00;0.00;;;-1.10;99.90;;;;;;5094218;28;20176;-66
2024/01/16 08:59:55;;;;;;;0.00;0.00;;;-0.90;99.90;;;;;;5094008;28;20215;-66
2024/01/16 09:02:21;;;;;;;0.00;0.00;;;-0.80;99.90;;;;;;5094186;28;20172;-66
2024/01/16 09:04:47;;;;;;;0.33;0.10;;;-0.80;99.90;;;;;;5094089;28;20172;-66
2024/01/16 09:07:15;;;;;;;0.47;0.47;;;-0.70;99.90;;;;;;5094136;28;20176;-66
2024/01/16 09:09:42;;;;;;;0.10;0.10;;;-0.60;99.90;;;;;;5093929;28;20233;-66
2024/01/16 09:12:10;;;;;;;0.00;0.00;;;-0.50;99.90;;;;;;5094013;28;20175;-66
2024/01/16 09:14:36;;;;;;;0.00;0.00;;;-0.40;99.90;;;;;;5093758;28;20266;-66
2024/01/16 09:17:03;;;;;;;0.00;0.00;;;-0.40;99.90;;;;;;5093825;28;20256;-66
2024/01/16 09:19:29;;;;;;;0.00;0.00;;;-0.30;99.90;;;;;;5093700;28;20184;-66
2024/01/16 09:21:55;;;;;;;0.00;0.00;;;-0.10;99.90;;;;;;5092284;28;20233;-67
2024/01/16 09:24:20;;;;;;;0.00;0.00;;;-0.10;99.90;;;;;;5093652;28;20168;-67
2024/01/16 09:26:46;;;;;;;0.00;0.00;;;0.00;99.90;;;;;;5093698;28;20263;-65
2024/01/16 09:29:12;;;;;;;0.00;0.00;;;0.00;99.90;;;;;;5093711;28;20639;-66
2024/01/16 09:31:37;;;;;;;0.00;0.00;;;0.00;99.90;;;;;;5093267;28;20584;-66
2024/01/16 09:34:04;;;;;;;0.00;0.00;;;0.10;99.90;;;;;;5093539;28;20610;-66
2024/01/16 09:36:29;;;;;;;0.00;0.00;;;0.10;99.90;;;;;;5093453;28;20168;-65
2024/01/16 09:38:55;;;;;;;0.00;0.00;;;0.20;99.90;;;;;;5093119;28;20580;-65
2024/01/16 09:41:20;;;;;;;0.00;0.00;;;0.20;99.90;;;;;;5093327;28;20215;-66
2024/01/16 09:43:47;;;;;;;0.00;0.00;;;0.30;99.90;;;;;;5093375;28;20172;-65
2024/01/16 09:46:16;;;;;;;0.00;0.00;;;0.30;99.90;;;;;;5092091;28;20176;-65
2024/01/16 09:48:44;;;;;;;0.43;0.43;;;0.40;99.90;;;;;;5091956;28;20176;-65
2024/01/16 09:51:14;;;;;;;0.10;0.10;;;0.40;99.90;;;;;;5093280;28;20267;-66
2024/01/16 09:53:42;;;;;;;0.00;0.00;;;0.50;99.90;;;;;;5092972;28;20199;-65
2024/01/16 09:56:15;;;;;;;0.00;0.00;;;0.50;99.90;;;;;;5093093;28;20703;-66
2024/01/16 09:58:43;;;;;;;0.00;0.00;;;0.60;99.90;;;;;;5091811;28;20175;-66
2024/01/16 10:01:09;;;;;;;0.00;0.00;;;0.70;99.90;;;;;;5093013;28;20556;-66
2024/01/16 10:03:35;;;;;;;0.00;0.00;;;0.80;99.90;;;;;;5092739;28;20184;-66
2024/01/16 10:06:06;;;;;;;0.00;0.00;;;0.80;99.90;;;;;;5093162;28;20592;-65
2024/01/16 10:08:31;;;;;;;0.00;0.00;;;0.80;99.90;;;;;;5091824;28;20639;-66
2024/01/16 10:10:58;;;;;;;0.17;0.17;;;0.90;99.90;;;;;;5092826;28;20172;-66
2024/01/16 10:13:23;;;;;;;0.00;0.00;;;0.90;99.90;;;;;;5092805;28;20180;-66
2024/01/16 10:15:50;;;;;;;0.08;0.08;;;1.00;99.90;;;;;;5092706;28;20203;-66
2024/01/16 10:18:26;;;;;;;0.00;0.00;;;1.10;99.90;;;;;;5092633;28;20215;-66
2024/01/16 10:20:55;;;;;;;0.00;0.00;;;1.10;99.90;;;;;;5092529;28;20265;-66
2024/01/16 10:23:24;;;;;;;0.00;0.00;;;1.10;99.90;;;;;;5092800;28;20177;-65
2024/01/16 10:26:09;;;;;;;0.10;0.10;;;1.20;99.90;;;;;;5092480;28;20643;-66
2024/01/16 10:28:36;;;;;;;0.00;0.00;;;1.30;99.90;;;;;;5092437;28;20179;-65
2024/01/16 10:31:03;;;;;;;0.00;0.00;;;1.40;99.90;;;;;;5092485;28;20229;-65
2024/01/16 10:33:29;;;;;;;0.00;0.00;;;1.40;99.90;;;;;;5092557;28;20182;-67
2024/01/16 10:36:16;;;;;;;0.00;0.00;;;1.50;99.90;;;;;;5092175;28;20251;-66
2024/01/16 10:38:43;;;;;;;0.03;0.03;;;1.50;99.90;;;;;;5092091;28;20216;-66
2024/01/16 10:41:10;;;;;;;0.00;0.00;;;1.60;99.90;;;;;;5092437;28;20294;-66
2024/01/16 10:43:36;;;;;;;0.00;0.00;;;1.60;99.90;;;;;;5092146;28;20632;-64
2024/01/16 10:46:12;;;;;;;0.00;0.00;;;1.60;99.90;;;;;;5092211;28;20187;-65
2024/01/16 10:48:40;;;;;;;0.00;0.00;;;1.60;99.90;;;;;;5091867;28;20172;-64
2024/01/16 10:51:08;;;;;;;0.00;0.00;;;1.60;99.90;;;;;;5092295;28;20240;-66
2024/01/16 10:53:34;;;;;;;0.00;0.00;;;1.60;99.90;;;;;;5091919;28;20606;-65
2024/01/16 10:56:02;;;;;;;0.00;0.00;;;1.60;99.90;;;;;;5092106;28;20212;-65
2024/01/16 10:58:31;;;;;;;0.00;0.00;;;1.70;99.90;;;;;;5092048;28;20207;-65
2024/01/16 11:00:59;;;;;;;0.00;0.00;;;1.70;99.90;;;;;;5091695;28;20211;-65
2024/01/16 11:03:31;;;;;;;0.00;0.00;;;1.80;99.90;;;;;;5092018;28;20168;-65
2024/01/16 11:05:58;;;;;;;0.00;0.00;;;1.80;99.90;;;;;;5091284;28;20214;-65
2024/01/16 11:08:29;;;;;;;0.00;0.00;;;1.90;99.90;;;;;;5091917;28;20179;-65
2024/01/16 11:10:55;;;;;;;0.00;0.00;;;2.10;99.90;;;;;;5091613;28;20176;-65
2024/01/16 11:13:22;;;;;;;0.00;0.00;;;2.30;99.90;;;;;;5091398;28;20172;-65
2024/01/16 11:15:49;;;;;;;0.00;0.00;;;2.40;99.90;;;;;;5091642;28;20165;-65
2024/01/16 11:18:17;;;;;;;0.00;0.00;;;2.70;99.90;;;;;;5091533;28;20180;-65
2024/01/16 11:20:43;;;;;;;0.00;0.00;;;2.80;99.50;;;;;;5091450;28;20295;-65
2024/01/16 11:23:11;;;;;;;0.00;0.00;;;3.00;99.40;;;;;;5091648;28;20267;-66
2024/01/16 11:25:37;;;;;;;0.00;0.00;;;3.10;99.20;;;;;;5091372;28;20176;-66
2024/01/16 11:28:13;;;;;;;0.00;0.00;;;3.20;99.30;;;;;;5091715;28;20518;-66
2024/01/16 11:30:39;;;;;;;0.00;0.00;;;3.20;98.30;;;;;;5091501;28;20171;-65
2024/01/16 11:33:04;;;;;;;0.10;0.10;;;3.30;98.30;;;;;;5091606;28;20176;-65
2024/01/16 11:35:38;;;;;;;0.00;0.00;;;3.20;98.10;;;;;;5091526;28;20180;-66
2024/01/16 11:38:16;;;;;;;0.10;0.10;;;3.20;98.10;;;;;;5091487;28;20192;-65
2024/01/16 11:40:41;;;;;;;0.08;0.08;;;3.20;98.00;;;;;;5091389;28;20628;-66
2024/01/16 11:43:42;;;;;;;0.10;0.10;;;3.30;98.10;;;;;;5090172;28;20172;-65
2024/01/16 11:46:08;;;;;;;0.00;0.00;;;3.30;97.50;;;;;;5048785;28;20559;-66
2024/01/16 11:48:35;;;;;;;0.10;0.10;;;3.30;97.20;;;;;;5082518;28;20226;-64
2024/01/16 11:51:20;;;;;;;0.05;0.05;;;3.20;97.00;;;;;;5089927;28;20225;-64
2024/01/16 11:53:46;;;;;;;0.00;0.00;;;3.20;97.30;;;;;;5091123;28;20183;-64
2024/01/16 11:56:41;;;;;;;0.00;0.00;;;3.20;97.20;;;;;;5091395;28;20180;-64
2024/01/16 11:59:51;;;;;;;0.00;0.00;;;3.30;97.40;;;;;;5091437;28;20168;-65
2024/01/16 12:02:37;;;;;;;0.00;0.00;;;3.40;97.20;;;;;;5091103;28;20304;-65
2024/01/16 12:05:06;;;;;;;0.00;0.00;;;3.50;96.90;;;;;;5091068;28;20172;-66
2024/01/16 12:07:47;;;;;;;0.00;0.00;;;3.40;96.60;;;;;;5091122;28;20183;-64
2024/01/16 12:10:12;;;;;;;0.00;0.00;;;3.40;96.40;;;;;;5091162;28;20176;-64
2024/01/16 12:12:38;;;;;;;0.00;0.00;;;3.40;95.80;;;;;;5090768;28;20183;-66
2024/01/16 12:15:04;;;;;;;0.00;0.00;;;3.40;95.40;;;;;;5090991;28;20195;-65
2024/01/16 12:17:30;;;;;;;0.20;0.20;;;3.40;95.90;;;;;;5093396;28;20671;-65
2024/01/16 12:19:55;;;;;;;0.00;0.00;;;3.40;96.00;;;;;;5095011;28;20207;-65
2024/01/16 12:22:22;;;;;;;0.00;0.00;;;3.60;95.90;;;;;;5095238;28;20655;-65
2024/01/16 12:24:48;;;;;;;0.00;0.00;;;3.70;95.00;;;;;;5095000;28;20199;-65
2024/01/16 12:27:14;;;;;;;0.00;0.00;;;3.70;95.60;;;;;;5094843;28;20214;-65
2024/01/16 12:29:42;;;;;;;0.00;0.00;;;3.90;94.90;;;;;;5095017;28;20183;-64
2024/01/16 12:32:09;;;;;;;0.00;0.00;;;3.90;94.50;;;;;;5096881;28;20180;-64
2024/01/16 12:34:43;;;;;;;0.00;0.00;;;4.00;95.00;;;;;;5097185;28;20180;-64
2024/01/16 12:37:10;;;;;;;0.10;0.10;;;4.00;95.30;;;;;;5096707;28;20175;-64
2024/01/16 12:39:35;;;;;;;0.00;0.00;;;4.00;95.50;;;;;;5097049;28;20236;-65
2024/01/16 12:42:01;;;;;;;0.00;0.00;;;4.10;95.50;;;;;;5097160;28;20214;-66
2024/01/16 12:44:28;;;;;;;0.00;0.00;;;4.10;95.40;;;;;;5096318;28;20168;-65
2024/01/16 12:46:57;;;;;;;0.00;0.00;;;4.20;95.40;;;;;;5095555;28;20618;-65
2024/01/16 12:49:23;;;;;;;0.00;0.00;;;4.30;94.50;;;;;;5095224;28;20199;-66